createdAt,value
2017-11-24T00:00:10.834Z,49.10
2017-11-24T00:02:39.794Z,49.30
2017-11-24T00:05:07.253Z,49.30
2017-11-24T00:07:34.709Z,49.30
2017-11-24T00:10:02.921Z,49.10
2017-11-24T00:12:30.715Z,49.10
2017-11-24T00:14:58.175Z,48.90
2017-11-24T00:17:26.382Z,48.80
2017-11-24T00:19:53.839Z,48.90
2017-11-24T00:22:21.294Z,48.70
2017-11-24T00:24:48.830Z,48.50
2017-11-24T00:27:16.276Z,48.50
2017-11-24T00:29:43.735Z,48.50
2017-11-24T00:32:11.949Z,48.90
2017-11-24T00:34:39.398Z,48.50
2017-11-24T00:37:06.859Z,48.60
2017-11-24T00:39:34.311Z,48.10
2017-11-24T00:42:01.862Z,48.10
2017-11-24T00:44:30.199Z,48.10
2017-11-24T00:46:57.646Z,48.20
2017-11-24T00:49:25.124Z,48.00
2017-11-24T00:51:53.338Z,48.10
2017-11-24T00:54:20.786Z,48.10
2017-11-24T00:56:48.247Z,48.10
2017-11-24T00:59:15.701Z,47.90
2017-11-24T01:01:43.157Z,47.80
2017-11-24T01:04:11.360Z,48.10
2017-11-24T01:06:38.829Z,48.00
2017-11-24T01:09:06.812Z,48.20
2017-11-24T01:11:35.030Z,48.60
2017-11-24T01:14:02.467Z,48.50
2017-11-24T01:16:29.980Z,48.60
2017-11-24T01:18:58.187Z,48.60
2017-11-24T01:21:25.657Z,48.60
2017-11-24T01:23:53.922Z,48.70
2017-11-24T01:26:22.133Z,48.20
2017-11-24T01:28:49.573Z,48.20
2017-11-24T01:31:17.026Z,48.40
2017-11-24T01:33:44.480Z,48.40
2017-11-24T01:36:11.940Z,48.10
2017-11-24T01:38:39.601Z,49.10
2017-11-24T01:41:07.056Z,48.40
2017-11-24T01:43:35.266Z,48.80
2017-11-24T01:46:02.715Z,48.80
2017-11-24T01:48:30.182Z,48.50
2017-11-24T01:50:57.640Z,48.60
2017-11-24T01:53:25.877Z,48.40
2017-11-24T01:55:53.300Z,48.30
2017-11-24T01:58:20.841Z,48.20
2017-11-24T02:00:48.289Z,48.10
2017-11-24T02:03:15.742Z,48.00
2017-11-24T02:05:43.219Z,48.10
2017-11-24T02:08:11.439Z,47.80
2017-11-24T02:10:38.909Z,47.80
2017-11-24T02:13:06.459Z,47.70
2017-11-24T02:15:33.917Z,47.60
2017-11-24T02:18:02.150Z,47.30
2017-11-24T02:20:29.603Z,47.30
2017-11-24T02:22:57.045Z,47.30
2017-11-24T02:25:25.314Z,47.30
2017-11-24T02:27:53.737Z,47.80
2017-11-24T02:30:21.215Z,47.80
2017-11-24T02:32:48.677Z,47.70
2017-11-24T02:35:16.922Z,47.70
2017-11-24T02:37:44.365Z,47.80
2017-11-24T02:40:12.583Z,47.80
2017-11-24T02:42:40.070Z,47.80
2017-11-24T02:45:07.609Z,47.80
2017-11-24T02:47:35.196Z,47.70
2017-11-24T02:50:02.681Z,48.60
2017-11-24T02:52:30.184Z,48.00
2017-11-24T02:54:57.725Z,47.90
2017-11-24T02:57:25.205Z,47.80
2017-11-24T02:59:52.684Z,48.50
2017-11-24T03:02:20.169Z,47.80
2017-11-24T03:04:47.668Z,47.90
2017-11-24T03:07:15.902Z,48.00
2017-11-24T03:09:43.365Z,48.00
2017-11-24T03:12:10.905Z,47.70
2017-11-24T03:14:38.393Z,48.60
2017-11-24T03:17:05.902Z,48.10
2017-11-24T03:19:34.174Z,49.50
2017-11-24T03:22:02.376Z,49.90
2017-11-24T03:24:29.825Z,49.90
2017-11-24T03:26:57.286Z,50.10
2017-11-24T03:29:24.748Z,50.20
2017-11-24T03:31:52.201Z,50.40
2017-11-24T03:34:19.647Z,50.90
2017-11-24T03:36:47.870Z,50.60
2017-11-24T03:39:15.306Z,50.60
2017-11-24T03:41:42.746Z,50.70
2017-11-24T03:44:10.203Z,50.40
2017-11-24T03:46:37.658Z,50.30
2017-11-24T03:49:05.218Z,50.10
2017-11-24T03:51:33.481Z,49.90
2017-11-24T03:54:01.693Z,49.80
2017-11-24T03:56:29.178Z,49.80
2017-11-24T03:58:56.715Z,49.70
2017-11-24T04:01:24.196Z,49.80
2017-11-24T04:03:51.652Z,49.90
2017-11-24T04:06:19.130Z,49.90
2017-11-24T04:08:46.590Z,50.00
2017-11-24T04:11:14.033Z,49.70
2017-11-24T04:13:41.579Z,49.70
2017-11-24T04:16:09.008Z,49.90
2017-11-24T04:18:36.471Z,50.00
2017-11-24T04:21:04.006Z,50.00
2017-11-24T04:23:31.534Z,50.00
2017-11-24T04:25:58.972Z,50.40
2017-11-24T04:28:26.423Z,50.30
2017-11-24T04:30:53.864Z,50.30
2017-11-24T04:33:21.422Z,50.20
2017-11-24T04:35:48.855Z,50.00
2017-11-24T04:38:16.310Z,49.60
2017-11-24T04:40:43.739Z,49.70
2017-11-24T04:43:11.311Z,49.60
2017-11-24T04:45:39.527Z,49.70
2017-11-24T04:48:06.975Z,49.60
2017-11-24T04:50:34.434Z,49.70
2017-11-24T04:53:01.881Z,49.90
2017-11-24T04:55:29.333Z,50.10
2017-11-24T04:57:56.873Z,50.20
2017-11-24T05:00:24.325Z,50.40
2017-11-24T05:02:52.586Z,50.70
2017-11-24T05:05:20.128Z,50.80
2017-11-24T05:07:47.582Z,51.00
2017-11-24T05:10:15.794Z,51.50
2017-11-24T05:12:43.237Z,51.40
2017-11-24T05:15:10.709Z,51.50
2017-11-24T05:17:38.153Z,51.60
2017-11-24T05:20:05.709Z,51.80
2017-11-24T05:22:33.926Z,52.40
2017-11-24T05:25:01.377Z,52.40
2017-11-24T05:27:28.960Z,52.50
2017-11-24T05:29:56.457Z,52.50
2017-11-24T05:32:23.923Z,52.50
2017-11-24T05:34:51.394Z,52.50
2017-11-24T05:37:19.606Z,52.40
2017-11-24T05:39:47.067Z,52.40
2017-11-24T05:42:14.506Z,52.50
2017-11-24T05:44:41.988Z,52.60
2017-11-24T05:47:10.221Z,52.30
2017-11-24T05:49:37.642Z,52.30
2017-11-24T05:52:05.093Z,52.50
2017-11-24T05:54:32.555Z,53.10
2017-11-24T05:57:00.005Z,53.20
2017-11-24T05:59:27.432Z,53.50
2017-11-24T06:01:54.876Z,54.00
2017-11-24T06:04:22.326Z,54.10
2017-11-24T06:06:49.764Z,54.00
2017-11-24T06:09:17.323Z,53.90
2017-11-24T06:11:44.863Z,53.70
2017-11-24T06:14:12.408Z,53.70
2017-11-24T06:16:39.869Z,53.70
2017-11-24T06:19:09.832Z,53.40
2017-11-24T06:21:37.402Z,53.40
2017-11-24T06:24:04.939Z,53.40
2017-11-24T06:26:32.425Z,53.60
2017-11-24T06:28:59.942Z,53.40
2017-11-24T06:31:28.150Z,53.00
2017-11-24T06:33:55.597Z,53.00
2017-11-24T06:36:23.047Z,53.20
2017-11-24T06:38:50.487Z,53.20
2017-11-24T06:41:17.939Z,53.10
2017-11-24T06:43:45.409Z,53.00
2017-11-24T06:46:13.613Z,52.90
2017-11-24T06:48:41.062Z,52.90
2017-11-24T06:51:08.528Z,52.40
2017-11-24T06:53:35.977Z,51.90
2017-11-24T06:56:03.429Z,52.20
2017-11-24T06:58:30.983Z,52.20
2017-11-24T07:00:58.416Z,52.30
2017-11-24T07:03:25.869Z,52.80
2017-11-24T07:05:54.085Z,53.10
2017-11-24T07:08:21.536Z,52.60
2017-11-24T07:10:48.974Z,52.50
2017-11-24T07:13:16.449Z,52.50
2017-11-24T07:15:43.898Z,52.70
2017-11-24T07:18:11.357Z,52.50
2017-11-24T07:20:39.563Z,52.00
2017-11-24T07:23:07.009Z,52.00
2017-11-24T07:25:34.456Z,51.20
2017-11-24T07:28:01.891Z,51.20
2017-11-24T07:30:29.356Z,51.00
2017-11-24T07:32:56.807Z,50.30
2017-11-24T07:35:24.273Z,49.50
2017-11-24T07:37:52.458Z,49.60
2017-11-24T07:40:19.971Z,49.60
2017-11-24T07:42:48.177Z,48.90
2017-11-24T07:45:15.618Z,48.90
2017-11-24T07:47:44.156Z,47.60
2017-11-24T07:50:11.669Z,46.70
2017-11-24T07:52:39.180Z,46.30
2017-11-24T07:55:06.613Z,46.00
2017-11-24T07:57:34.109Z,45.90
2017-11-24T08:00:01.767Z,46.10
2017-11-24T08:02:29.970Z,45.70
2017-11-24T08:04:57.411Z,45.70
2017-11-24T08:07:24.894Z,45.40
2017-11-24T08:09:52.351Z,45.20
2017-11-24T08:12:19.794Z,44.90
2017-11-24T08:14:48.016Z,44.70
2017-11-24T08:17:15.493Z,44.70
2017-11-24T08:19:43.122Z,44.70
2017-11-24T08:22:10.575Z,45.50
2017-11-24T08:24:38.006Z,44.70
2017-11-24T08:27:05.461Z,44.50
2017-11-24T08:29:32.905Z,44.20
2017-11-24T08:32:00.518Z,43.70
2017-11-24T08:34:27.945Z,44.60
2017-11-24T08:36:55.581Z,43.40
2017-11-24T08:39:23.010Z,43.20
2017-11-24T08:41:51.377Z,42.80
2017-11-24T08:44:18.846Z,42.30
2017-11-24T08:46:52.113Z,42.30
2017-11-24T08:49:39.262Z,41.60
2017-11-24T08:52:06.802Z,41.60
2017-11-24T08:54:34.229Z,41.90
2017-11-24T08:57:01.685Z,41.60
2017-11-24T08:59:29.132Z,41.20
2017-11-24T09:01:56.576Z,41.30
2017-11-24T09:04:24.029Z,40.90
2017-11-24T09:06:51.499Z,41.00
2017-11-24T09:09:19.721Z,40.70
2017-11-24T09:11:47.158Z,40.70
2017-11-24T09:14:14.633Z,40.60
2017-11-24T09:16:42.846Z,40.30
2017-11-24T09:19:10.318Z,40.30
2017-11-24T09:21:37.780Z,40.10
2017-11-24T09:24:05.991Z,39.30
2017-11-24T09:26:33.426Z,39.30
2017-11-24T09:29:00.885Z,39.60
2017-11-24T09:31:28.320Z,40.00
2017-11-24T09:33:55.816Z,39.80
2017-11-24T09:36:24.057Z,39.30
2017-11-24T09:38:51.510Z,39.40
2017-11-24T09:41:19.733Z,39.70
2017-11-24T09:43:47.174Z,39.00
2017-11-24T09:46:14.614Z,38.40
2017-11-24T09:48:42.070Z,37.90
2017-11-24T09:51:09.565Z,38.50
2017-11-24T09:53:37.771Z,36.40
2017-11-24T09:56:05.213Z,36.40
2017-11-24T09:58:32.654Z,36.40
2017-11-24T10:01:00.105Z,36.00
2017-11-24T10:03:27.537Z,36.30
2017-11-24T10:05:54.990Z,36.00
2017-11-24T10:08:22.434Z,36.20
2017-11-24T10:10:49.894Z,35.50
2017-11-24T10:13:17.324Z,36.10
2017-11-24T10:15:44.765Z,35.80
2017-11-24T10:18:12.241Z,35.90
2017-11-24T10:20:46.276Z,35.80
2017-11-24T10:23:13.752Z,35.80
2017-11-24T10:25:41.186Z,36.10
2017-11-24T10:28:08.641Z,35.80
2017-11-24T10:30:36.089Z,35.70
2017-11-24T10:33:03.535Z,35.80
2017-11-24T10:35:30.974Z,36.00
2017-11-24T10:37:58.405Z,36.10
2017-11-24T10:40:25.863Z,36.70
2017-11-24T10:42:53.416Z,37.10
2017-11-24T10:45:20.841Z,37.60
2017-11-24T10:47:48.285Z,37.70
2017-11-24T10:50:15.762Z,38.00
2017-11-24T10:52:43.198Z,38.70
2017-11-24T10:55:11.439Z,39.30
2017-11-24T10:57:38.875Z,39.20
2017-11-24T11:00:06.414Z,39.10
2017-11-24T11:02:33.871Z,39.40
2017-11-24T11:05:02.073Z,39.50
2017-11-24T11:07:29.549Z,39.50
2017-11-24T11:09:56.979Z,39.00
2017-11-24T11:12:24.445Z,38.40
2017-11-24T11:14:51.881Z,37.80
2017-11-24T11:17:19.340Z,38.00
2017-11-24T11:19:47.082Z,37.80
2017-11-24T11:22:15.210Z,37.40
2017-11-24T11:24:42.652Z,35.40
2017-11-24T11:27:10.107Z,34.60
2017-11-24T11:29:37.561Z,34.60
2017-11-24T11:32:05.086Z,35.20
2017-11-24T11:34:32.527Z,34.60
2017-11-24T11:36:59.989Z,34.40
2017-11-24T11:39:27.469Z,34.50
2017-11-24T11:41:55.697Z,34.40
2017-11-24T11:44:23.157Z,34.40
2017-11-24T11:46:50.608Z,34.70
2017-11-24T11:49:18.823Z,35.30
2017-11-24T11:51:46.264Z,35.30
2017-11-24T11:54:13.754Z,35.90
2017-11-24T11:56:41.961Z,36.20
2017-11-24T11:59:09.406Z,36.20
2017-11-24T12:01:36.854Z,36.40
2017-11-24T12:04:04.293Z,36.00
2017-11-24T12:06:31.779Z,35.60
2017-11-24T12:08:59.994Z,35.30
2017-11-24T12:11:27.451Z,35.20
2017-11-24T12:13:54.890Z,35.30
2017-11-24T12:16:22.365Z,35.60
2017-11-24T12:18:49.808Z,35.10
2017-11-24T12:21:17.347Z,34.80
2017-11-24T12:23:44.840Z,35.10
2017-11-24T12:26:12.405Z,35.30
2017-11-24T12:28:39.877Z,35.40
2017-11-24T12:31:07.425Z,35.50
2017-11-24T12:33:34.877Z,34.80
2017-11-24T12:36:02.407Z,35.70
2017-11-24T12:38:29.850Z,36.20
2017-11-24T12:40:57.285Z,35.10
2017-11-24T12:43:24.733Z,35.40
2017-11-24T12:45:52.166Z,35.60
2017-11-24T12:48:19.625Z,35.70
2017-11-24T12:50:47.133Z,35.80
2017-11-24T12:53:14.569Z,36.00
2017-11-24T12:55:42.026Z,36.20
2017-11-24T12:58:09.466Z,36.50
2017-11-24T13:00:36.938Z,36.80
2017-11-24T13:03:04.687Z,36.80
2017-11-24T13:05:32.137Z,36.60
2017-11-24T13:07:59.678Z,36.60
2017-11-24T13:10:27.190Z,36.80
2017-11-24T13:12:54.645Z,36.60
2017-11-24T13:15:22.081Z,36.60
2017-11-24T13:17:49.543Z,36.60
2017-11-24T13:20:17.111Z,35.80
2017-11-24T13:22:45.317Z,35.70
2017-11-24T13:25:12.761Z,35.70
2017-11-24T13:27:40.233Z,35.90
2017-11-24T13:30:07.774Z,35.90
2017-11-24T13:32:35.205Z,35.70
2017-11-24T13:35:02.657Z,35.50
2017-11-24T13:37:30.097Z,36.60
2017-11-24T13:39:57.557Z,37.10
2017-11-24T13:42:25.106Z,36.40
2017-11-24T13:44:52.594Z,36.40
2017-11-24T13:47:20.029Z,37.30
2017-11-24T13:49:47.478Z,36.60
2017-11-24T13:52:14.937Z,36.80
2017-11-24T13:54:42.373Z,36.70
2017-11-24T13:57:09.818Z,36.90
2017-11-24T13:59:37.371Z,37.20
2017-11-24T14:02:04.814Z,37.40
2017-11-24T14:04:32.264Z,37.40
2017-11-24T14:06:59.717Z,37.60
2017-11-24T14:09:27.157Z,37.70
2017-11-24T14:11:54.597Z,37.80
2017-11-24T14:14:22.049Z,37.80
2017-11-24T14:16:49.504Z,38.10
2017-11-24T14:19:17.041Z,38.20
2017-11-24T14:21:44.482Z,38.40
2017-11-24T14:24:11.913Z,38.80
2017-11-24T14:26:39.387Z,39.00
2017-11-24T14:29:07.576Z,38.60
2017-11-24T14:31:35.013Z,39.20
2017-11-24T14:34:02.561Z,39.40
2017-11-24T14:36:30.720Z,39.50
2017-11-24T14:38:58.175Z,39.60
2017-11-24T14:41:25.621Z,39.70
2017-11-24T14:43:53.067Z,40.00
2017-11-24T14:46:20.506Z,40.10
2017-11-24T14:48:47.945Z,40.50
2017-11-24T14:51:15.378Z,40.80
2017-11-24T14:53:43.017Z,40.60
2017-11-24T14:56:10.520Z,40.90
2017-11-24T14:58:37.960Z,40.90
2017-11-24T15:01:05.428Z,41.10
2017-11-24T15:03:33.660Z,41.40
2017-11-24T15:06:01.105Z,41.50
2017-11-24T15:08:28.540Z,41.70
2017-11-24T15:10:55.978Z,41.80
2017-11-24T15:13:23.424Z,42.00
2017-11-24T15:15:50.864Z,42.00
2017-11-24T15:18:18.316Z,42.30
2017-11-24T15:20:45.863Z,42.40
2017-11-24T15:23:13.320Z,42.60
2017-11-24T15:25:40.767Z,42.70
2017-11-24T15:28:08.242Z,43.00
2017-11-24T15:30:35.746Z,43.20
2017-11-24T15:33:03.200Z,43.00
2017-11-24T15:35:31.410Z,43.40
2017-11-24T15:37:58.922Z,43.40
2017-11-24T15:40:27.121Z,43.60
2017-11-24T15:42:54.573Z,43.60
2017-11-24T15:45:22.017Z,43.60
2017-11-24T15:47:49.474Z,43.90
2017-11-24T15:50:17.030Z,43.90
2017-11-24T15:52:44.593Z,44.10
2017-11-24T15:55:12.839Z,44.40
2017-11-24T15:57:41.230Z,44.40
2017-11-24T16:00:08.813Z,44.70
2017-11-24T16:02:36.244Z,44.90
2017-11-24T16:05:03.751Z,44.90
2017-11-24T16:07:31.992Z,45.20
2017-11-24T16:09:59.528Z,45.10
2017-11-24T16:12:27.849Z,45.20
2017-11-24T16:14:55.307Z,45.20
2017-11-24T16:17:22.749Z,45.30
2017-11-24T16:19:51.122Z,45.50
2017-11-24T16:22:18.623Z,45.70
2017-11-24T16:24:46.142Z,45.70
2017-11-24T16:27:13.582Z,45.50
2017-11-24T16:29:41.035Z,45.10
2017-11-24T16:32:09.599Z,45.40
2017-11-24T16:34:37.034Z,45.10
2017-11-24T16:37:04.509Z,45.00
2017-11-24T16:39:31.953Z,45.00
2017-11-24T16:41:59.409Z,45.00
2017-11-24T16:44:26.870Z,44.90
2017-11-24T16:46:54.352Z,44.60
2017-11-24T16:49:22.574Z,44.90
2017-11-24T16:51:50.026Z,44.90
2017-11-24T16:54:18.294Z,44.80
2017-11-24T16:56:45.741Z,44.70
2017-11-24T16:59:13.183Z,44.60
2017-11-24T17:01:40.761Z,44.60
2017-11-24T17:04:08.198Z,44.80
2017-11-24T17:06:35.649Z,45.50
2017-11-24T17:09:03.846Z,45.00
2017-11-24T17:11:31.332Z,45.00
2017-11-24T17:13:58.774Z,45.10
2017-11-24T17:16:26.223Z,45.10
2017-11-24T17:18:53.673Z,45.30
2017-11-24T17:21:21.134Z,45.40
2017-11-24T17:23:48.594Z,45.50
2017-11-24T17:26:16.097Z,45.50
2017-11-24T17:28:43.548Z,45.60
2017-11-24T17:31:11.006Z,45.80
2017-11-24T17:33:39.202Z,46.10
2017-11-24T17:36:06.684Z,46.10
2017-11-24T17:38:34.145Z,46.10
2017-11-24T17:41:02.351Z,46.20
2017-11-24T17:43:29.777Z,46.20
2017-11-24T17:45:57.230Z,46.20
2017-11-24T17:48:24.671Z,46.60
2017-11-24T17:50:52.126Z,46.70
2017-11-24T17:53:19.582Z,46.90
2017-11-24T17:55:47.041Z,47.20
2017-11-24T17:58:14.589Z,47.60
2017-11-24T18:00:42.057Z,47.90
2017-11-24T18:03:09.552Z,48.50
2017-11-24T18:05:37.026Z,48.10
2017-11-24T18:08:05.235Z,48.30
2017-11-24T18:10:32.717Z,48.30
2017-11-24T18:13:00.936Z,48.60
2017-11-24T18:15:28.437Z,48.50
2017-11-24T18:17:55.923Z,48.80
2017-11-24T18:20:23.348Z,49.50
2017-11-24T18:22:50.812Z,49.90
2017-11-24T18:25:18.262Z,49.90
2017-11-24T18:27:45.717Z,50.30
2017-11-24T18:30:13.154Z,50.50
2017-11-24T18:32:40.624Z,50.20
2017-11-24T18:35:09.567Z,50.40
2017-11-24T18:37:37.011Z,50.40
2017-11-24T18:40:04.455Z,50.50
2017-11-24T18:42:31.894Z,50.70
2017-11-24T18:44:59.362Z,50.80
2017-11-24T18:47:26.810Z,50.50
2017-11-24T18:49:54.253Z,50.70
2017-11-24T18:52:22.526Z,50.60
2017-11-24T18:54:49.933Z,50.60
2017-11-24T18:57:17.382Z,50.50
2017-11-24T18:59:44.825Z,50.10
2017-11-24T19:02:12.485Z,49.80
2017-11-24T19:04:39.946Z,49.40
2017-11-24T19:07:08.154Z,49.50
2017-11-24T19:09:35.646Z,49.30
2017-11-24T19:12:03.070Z,49.20
2017-11-24T19:14:30.626Z,49.20
2017-11-24T19:16:58.068Z,48.70
2017-11-24T19:19:25.513Z,49.30
2017-11-24T19:21:53.324Z,49.40
2017-11-24T19:24:20.757Z,49.60
2017-11-24T19:26:48.194Z,49.70
2017-11-24T19:29:15.642Z,49.90
2017-11-24T19:31:43.130Z,50.10
2017-11-24T19:34:11.554Z,50.20
2017-11-24T19:36:39.017Z,50.30
2017-11-24T19:39:06.499Z,50.00
2017-11-24T19:41:34.714Z,50.20
2017-11-24T19:44:02.158Z,50.10
2017-11-24T19:46:29.633Z,50.10
2017-11-24T19:48:57.080Z,50.10
2017-11-24T19:51:24.520Z,50.00
2017-11-24T19:53:51.974Z,50.10
2017-11-24T19:56:20.184Z,49.80
2017-11-24T19:58:47.706Z,49.70
2017-11-24T20:01:15.177Z,49.80
2017-11-24T20:03:42.693Z,49.70
2017-11-24T20:06:10.192Z,49.70
2017-11-24T20:08:37.634Z,50.10
2017-11-24T20:11:05.109Z,50.20
2017-11-24T20:13:32.613Z,50.60
2017-11-24T20:16:00.093Z,50.40
2017-11-24T20:18:28.334Z,50.50
2017-11-24T20:20:55.919Z,50.50
2017-11-24T20:23:23.386Z,51.40
2017-11-24T20:25:50.849Z,50.80
2017-11-24T20:28:19.276Z,50.60
2017-11-24T20:30:46.894Z,50.70
2017-11-24T20:33:15.110Z,50.60
2017-11-24T20:35:42.650Z,50.60
2017-11-24T20:38:10.089Z,50.90
2017-11-24T20:40:37.570Z,50.80
2017-11-24T20:43:05.047Z,50.80
2017-11-24T20:45:32.516Z,51.00
2017-11-24T20:47:59.941Z,51.00
2017-11-24T20:50:27.479Z,51.10
2017-11-24T20:52:54.951Z,51.00
2017-11-24T20:55:22.511Z,51.10
2017-11-24T20:57:50.103Z,51.00
2017-11-24T21:00:17.656Z,50.90
2017-11-24T21:02:45.217Z,50.90
2017-11-24T21:05:12.825Z,51.00
2017-11-24T21:07:40.414Z,51.30
2017-11-24T21:10:07.926Z,51.10
2017-11-24T21:12:36.160Z,51.30
2017-11-24T21:15:03.593Z,51.20
2017-11-24T21:17:31.096Z,51.30
2017-11-24T21:19:58.799Z,51.20
2017-11-24T21:22:26.339Z,51.40
2017-11-24T21:24:53.786Z,51.40
2017-11-24T21:27:21.249Z,51.60
2017-11-24T21:29:49.531Z,51.70
2017-11-24T21:32:17.046Z,51.70
2017-11-24T21:34:45.253Z,51.90
2017-11-24T21:37:12.774Z,51.80
2017-11-24T21:39:40.272Z,51.80
2017-11-24T21:42:07.761Z,51.70
2017-11-24T21:44:35.234Z,51.80
2017-11-24T21:47:02.741Z,51.90
2017-11-24T21:49:30.937Z,52.70
2017-11-24T21:51:58.423Z,52.50
2017-11-24T21:54:25.873Z,52.70
2017-11-24T21:56:54.268Z,53.50
2017-11-24T21:59:21.736Z,53.50
2017-11-24T22:01:49.224Z,53.40
2017-11-24T22:04:17.470Z,54.80
2017-11-24T22:06:44.908Z,54.80
2017-11-24T22:09:12.414Z,54.90
2017-11-24T22:11:39.888Z,55.10
2017-11-24T22:14:07.345Z,55.10
2017-11-24T22:16:34.918Z,55.20
2017-11-24T22:19:02.424Z,55.30
2017-11-24T22:21:29.857Z,55.10
2017-11-24T22:23:58.826Z,55.20
2017-11-24T22:26:26.324Z,54.70
2017-11-24T22:28:53.841Z,55.20
2017-11-24T22:31:21.381Z,55.70
2017-11-24T22:33:48.875Z,55.50
2017-11-24T22:36:16.329Z,55.50
2017-11-24T22:38:43.787Z,55.60
2017-11-24T22:41:11.225Z,55.60
2017-11-24T22:43:38.715Z,55.60
2017-11-24T22:46:06.961Z,56.60
2017-11-24T22:48:34.431Z,56.60
2017-11-24T22:51:02.638Z,56.60
2017-11-24T22:53:30.090Z,56.50
2017-11-24T22:55:57.554Z,57.40
2017-11-24T22:58:24.997Z,57.90
2017-11-24T23:00:52.464Z,58.30
2017-11-24T23:03:19.943Z,58.40
2017-11-24T23:05:47.401Z,58.20
2017-11-24T23:08:14.858Z,58.20
2017-11-24T23:10:42.319Z,58.60
2017-11-24T23:13:10.524Z,59.20
2017-11-24T23:15:37.978Z,58.50
2017-11-24T23:18:05.451Z,58.40
2017-11-24T23:20:32.896Z,57.90
2017-11-24T23:23:00.441Z,57.90
2017-11-24T23:25:27.907Z,57.60
2017-11-24T23:27:56.109Z,57.10
2017-11-24T23:30:23.565Z,57.10
2017-11-24T23:32:51.049Z,57.50
2017-11-24T23:35:19.302Z,57.70
2017-11-24T23:37:46.738Z,57.70
2017-11-24T23:40:14.197Z,58.10
2017-11-24T23:42:42.426Z,57.40
2017-11-24T23:45:09.888Z,57.40
2017-11-24T23:47:37.322Z,57.30
2017-11-24T23:50:04.862Z,57.40
2017-11-24T23:52:32.414Z,57.60
2017-11-24T23:55:00.650Z,58.10
2017-11-24T23:57:28.095Z,58.10
2017-11-24T23:59:55.552Z,58.30
